sensor_id;sensor_type;location;lat;lon;timestamp;temperature;humidity
664;DHT22;314;48.770;9.246;2022-09-01T00:01:11;16.30;99.10
664;DHT22;314;48.770;9.246;2022-09-01T00:03:43;16.30;99.10
664;DHT22;314;48.770;9.246;2022-09-01T00:06:15;16.30;99.10
664;DHT22;314;48.770;9.246;2022-09-01T00:08:54;16.30;99.10
664;DHT22;314;48.770;9.246;2022-09-01T00:11:23;16.30;99.10
664;DHT22;314;48.770;9.246;2022-09-01T00:13:49;16.30;99.10
664;DHT22;314;48.770;9.246;2022-09-01T00:16:18;16.20;99.10
664;DHT22;314;48.770;9.246;2022-09-01T00:18:47;16.20;99.10
664;DHT22;314;48.770;9.246;2022-09-01T00:21:23;16.30;99.10
664;DHT22;314;48.770;9.246;2022-09-01T00:23:50;16.20;99.10
664;DHT22;314;48.770;9.246;2022-09-01T00:26:16;16.20;99.10
664;DHT22;314;48.770;9.246;2022-09-01T00:28:42;16.20;99.10
664;DHT22;314;48.770;9.246;2022-09-01T00:31:08;16.20;99.10
664;DHT22;314;48.770;9.246;2022-09-01T00:33:36;16.10;99.10
664;DHT22;314;48.770;9.246;2022-09-01T00:36:02;16.10;99.10
664;DHT22;314;48.770;9.246;2022-09-01T00:38:30;16.10;99.10
664;DHT22;314;48.770;9.246;2022-09-01T00:40:56;16.10;99.10
664;DHT22;314;48.770;9.246;2022-09-01T00:43:39;16.10;99.10
664;DHT22;314;48.770;9.246;2022-09-01T00:46:08;16.10;99.10
664;DHT22;314;48.770;9.246;2022-09-01T00:48:35;16.00;99.10
664;DHT22;314;48.770;9.246;2022-09-01T00:51:02;16.00;99.10
664;DHT22;314;48.770;9.246;2022-09-01T00:53:28;16.00;99.10
664;DHT22;314;48.770;9.246;2022-09-01T00:55:55;16.00;99.10
664;DHT22;314;48.770;9.246;2022-09-01T00:58:21;16.00;99.10
664;DHT22;314;48.770;9.246;2022-09-01T01:00:48;16.00;99.10
664;DHT22;314;48.770;9.246;2022-09-01T01:03:16;16.00;99.10
664;DHT22;314;48.770;9.246;2022-09-01T01:05:48;16.00;99.10
664;DHT22;314;48.770;9.246;2022-09-01T01:08:21;16.00;99.10
664;DHT22;314;48.770;9.246;2022-09-01T01:10:53;15.90;99.10
664;DHT22;314;48.770;9.246;2022-09-01T01:13:19;15.90;99.10
664;DHT22;314;48.770;9.246;2022-09-01T01:15:45;15.90;99.10
664;DHT22;314;48.770;9.246;2022-09-01T01:18:15;15.90;99.10
664;DHT22;314;48.770;9.246;2022-09-01T01:20:41;15.90;99.10
664;DHT22;314;48.770;9.246;2022-09-01T01:23:38;15.80;99.10
664;DHT22;314;48.770;9.246;2022-09-01T01:26:07;15.90;99.10
664;DHT22;314;48.770;9.246;2022-09-01T01:28:39;15.80;99.10
664;DHT22;314;48.770;9.246;2022-09-01T01:31:11;15.80;99.10
664;DHT22;314;48.770;9.246;2022-09-01T01:36:32;15.80;99.10
664;DHT22;314;48.770;9.246;2022-09-01T01:39:08;15.70;99.10
664;DHT22;314;48.770;9.246;2022-09-01T01:41:37;15.70;99.10
664;DHT22;314;48.770;9.246;2022-09-01T01:44:05;15.70;99.10
664;DHT22;314;48.770;9.246;2022-09-01T01:46:33;15.60;99.10
664;DHT22;314;48.770;9.246;2022-09-01T01:48:59;15.60;99.10
664;DHT22;314;48.770;9.246;2022-09-01T01:51:27;15.60;99.10
664;DHT22;314;48.770;9.246;2022-09-01T01:53:55;15.60;99.10
664;DHT22;314;48.770;9.246;2022-09-01T01:56:23;15.60;99.10
664;DHT22;314;48.770;9.246;2022-09-01T01:58:51;15.50;99.10
664;DHT22;314;48.770;9.246;2022-09-01T02:01:19;15.60;99.10
664;DHT22;314;48.770;9.246;2022-09-01T02:03:46;15.60;99.10
664;DHT22;314;48.770;9.246;2022-09-01T02:06:12;15.60;99.10
664;DHT22;314;48.770;9.246;2022-09-01T02:08:39;15.60;99.10
664;DHT22;314;48.770;9.246;2022-09-01T02:11:06;15.50;99.10
664;DHT22;314;48.770;9.246;2022-09-01T02:13:32;15.50;99.10
664;DHT22;314;48.770;9.246;2022-09-01T02:16:06;15.50;99.10
664;DHT22;314;48.770;9.246;2022-09-01T02:18:35;15.50;99.10
664;DHT22;314;48.770;9.246;2022-09-01T02:21:03;15.50;99.10
664;DHT22;314;48.770;9.246;2022-09-01T02:23:34;15.50;99.10
664;DHT22;314;48.770;9.246;2022-09-01T02:26:00;15.50;99.10
664;DHT22;314;48.770;9.246;2022-09-01T02:28:28;15.50;99.10
664;DHT22;314;48.770;9.246;2022-09-01T02:30:57;15.40;99.10
664;DHT22;314;48.770;9.246;2022-09-01T02:33:25;15.40;99.10
664;DHT22;314;48.770;9.246;2022-09-01T02:35:55;15.30;99.10
664;DHT22;314;48.770;9.246;2022-09-01T02:38:22;15.30;99.10
664;DHT22;314;48.770;9.246;2022-09-01T02:40:51;15.30;99.10
664;DHT22;314;48.770;9.246;2022-09-01T02:43:19;15.30;99.10
664;DHT22;314;48.770;9.246;2022-09-01T02:45:49;15.30;99.10
664;DHT22;314;48.770;9.246;2022-09-01T02:48:20;15.30;99.10
664;DHT22;314;48.770;9.246;2022-09-01T02:50:51;15.30;99.10
664;DHT22;314;48.770;9.246;2022-09-01T02:53:17;15.20;99.10
664;DHT22;314;48.770;9.246;2022-09-01T02:55:44;15.20;99.10
664;DHT22;314;48.770;9.246;2022-09-01T02:58:10;15.20;99.10
664;DHT22;314;48.770;9.246;2022-09-01T03:00:45;15.20;99.10
664;DHT22;314;48.770;9.246;2022-09-01T03:03:11;15.20;99.10
664;DHT22;314;48.770;9.246;2022-09-01T03:05:44;15.20;99.10
664;DHT22;314;48.770;9.246;2022-09-01T03:08:10;15.20;99.10
664;DHT22;314;48.770;9.246;2022-09-01T03:10:40;15.20;99.10
664;DHT22;314;48.770;9.246;2022-09-01T03:13:09;15.10;99.10
664;DHT22;314;48.770;9.246;2022-09-01T03:15:37;15.10;99.10
664;DHT22;314;48.770;9.246;2022-09-01T03:18:05;15.10;99.10
664;DHT22;314;48.770;9.246;2022-09-01T03:20:33;15.10;99.10
664;DHT22;314;48.770;9.246;2022-09-01T03:23:05;15.10;99.10
664;DHT22;314;48.770;9.246;2022-09-01T03:25:34;15.10;99.10
664;DHT22;314;48.770;9.246;2022-09-01T03:28:01;15.10;99.10
664;DHT22;314;48.770;9.246;2022-09-01T03:52:51;15.20;99.10
664;DHT22;314;48.770;9.246;2022-09-01T03:55:30;15.10;99.10
664;DHT22;314;48.770;9.246;2022-09-01T03:57:59;15.00;99.10
664;DHT22;314;48.770;9.246;2022-09-01T04:00:27;15.00;99.10
664;DHT22;314;48.770;9.246;2022-09-01T04:02:57;15.00;99.10
664;DHT22;314;48.770;9.246;2022-09-01T04:05:24;14.90;99.10
664;DHT22;314;48.770;9.246;2022-09-01T04:07:53;14.90;99.10
664;DHT22;314;48.770;9.246;2022-09-01T04:10:20;14.90;99.10
664;DHT22;314;48.770;9.246;2022-09-01T04:12:47;14.90;99.10
664;DHT22;314;48.770;9.246;2022-09-01T04:15:14;14.90;99.10
664;DHT22;314;48.770;9.246;2022-09-01T04:17:42;14.80;99.10
664;DHT22;314;48.770;9.246;2022-09-01T04:20:27;14.80;99.10
664;DHT22;314;48.770;9.246;2022-09-01T04:22:54;14.80;99.10
664;DHT22;314;48.770;9.246;2022-09-01T04:25:21;14.80;99.10
664;DHT22;314;48.770;9.246;2022-09-01T04:27:52;14.80;99.10
664;DHT22;314;48.770;9.246;2022-09-01T04:30:21;14.80;99.10
664;DHT22;314;48.770;9.246;2022-09-01T04:32:51;14.80;99.10
664;DHT22;314;48.770;9.246;2022-09-01T04:35:22;14.80;99.10
664;DHT22;314;48.770;9.246;2022-09-01T04:37:58;14.70;99.10
664;DHT22;314;48.770;9.246;2022-09-01T04:40:24;14.80;99.10
664;DHT22;314;48.770;9.246;2022-09-01T04:42:51;14.70;99.10
664;DHT22;314;48.770;9.246;2022-09-01T04:45:17;14.70;99.10
664;DHT22;314;48.770;9.246;2022-09-01T04:47:47;14.70;99.10
664;DHT22;314;48.770;9.246;2022-09-01T04:50:13;14.70;99.10
664;DHT22;314;48.770;9.246;2022-09-01T04:52:45;14.70;99.10
664;DHT22;314;48.770;9.246;2022-09-01T04:55:13;14.70;99.10
664;DHT22;314;48.770;9.246;2022-09-01T04:57:46;14.70;99.10
664;DHT22;314;48.770;9.246;2022-09-01T05:00:19;14.70;99.10
664;DHT22;314;48.770;9.246;2022-09-01T05:02:55;14.80;99.10
664;DHT22;314;48.770;9.246;2022-09-01T05:05:34;14.80;99.10
664;DHT22;314;48.770;9.246;2022-09-01T05:08:04;14.80;99.10
664;DHT22;314;48.770;9.246;2022-09-01T05:10:30;14.90;99.10
664;DHT22;314;48.770;9.246;2022-09-01T05:12:59;15.00;99.10
664;DHT22;314;48.770;9.246;2022-09-01T05:15:26;15.00;99.10
664;DHT22;314;48.770;9.246;2022-09-01T05:17:52;15.00;99.10
664;DHT22;314;48.770;9.246;2022-09-01T05:20:19;15.00;99.10
664;DHT22;314;48.770;9.246;2022-09-01T05:22:46;15.10;99.10
664;DHT22;314;48.770;9.246;2022-09-01T05:25:11;15.10;99.10
664;DHT22;314;48.770;9.246;2022-09-01T05:27:42;15.20;99.10
664;DHT22;314;48.770;9.246;2022-09-01T05:30:15;15.20;99.10
664;DHT22;314;48.770;9.246;2022-09-01T05:32:42;15.20;99.10
664;DHT22;314;48.770;9.246;2022-09-01T05:35:13;15.30;99.10
664;DHT22;314;48.770;9.246;2022-09-01T05:37:39;15.30;99.10
664;DHT22;314;48.770;9.246;2022-09-01T05:40:07;15.40;99.10
664;DHT22;314;48.770;9.246;2022-09-01T05:42:43;15.40;99.10
664;DHT22;314;48.770;9.246;2022-09-01T05:45:09;15.40;99.10
664;DHT22;314;48.770;9.246;2022-09-01T05:47:41;15.50;99.10
664;DHT22;314;48.770;9.246;2022-09-01T05:50:07;15.60;99.10
664;DHT22;314;48.770;9.246;2022-09-01T05:52:37;15.60;99.10
664;DHT22;314;48.770;9.246;2022-09-01T05:55:04;15.70;99.10
664;DHT22;314;48.770;9.246;2022-09-01T05:57:36;15.80;99.10
664;DHT22;314;48.770;9.246;2022-09-01T06:00:06;15.80;99.10
664;DHT22;314;48.770;9.246;2022-09-01T06:02:36;15.90;99.10
664;DHT22;314;48.770;9.246;2022-09-01T06:05:07;16.00;99.10
664;DHT22;314;48.770;9.246;2022-09-01T06:07:34;16.10;99.10
664;DHT22;314;48.770;9.246;2022-09-01T06:10:04;16.20;99.10
664;DHT22;314;48.770;9.246;2022-09-01T06:12:30;16.20;99.10
664;DHT22;314;48.770;9.246;2022-09-01T06:14:56;16.30;99.10
664;DHT22;314;48.770;9.246;2022-09-01T06:17:24;16.40;99.10
664;DHT22;314;48.770;9.246;2022-09-01T06:19:52;16.50;99.10
664;DHT22;314;48.770;9.246;2022-09-01T06:22:20;16.60;99.10
664;DHT22;314;48.770;9.246;2022-09-01T06:24:48;16.70;99.10
664;DHT22;314;48.770;9.246;2022-09-01T06:27:17;16.80;99.10
664;DHT22;314;48.770;9.246;2022-09-01T06:29:45;16.90;99.10
664;DHT22;314;48.770;9.246;2022-09-01T06:32:12;17.10;99.10
664;DHT22;314;48.770;9.246;2022-09-01T06:34:40;17.10;99.10
664;DHT22;314;48.770;9.246;2022-09-01T06:37:06;17.20;99.10
664;DHT22;314;48.770;9.246;2022-09-01T06:39:33;17.20;99.10
664;DHT22;314;48.770;9.246;2022-09-01T06:41:59;17.30;99.10
664;DHT22;314;48.770;9.246;2022-09-01T06:44:27;17.40;99.10
664;DHT22;314;48.770;9.246;2022-09-01T06:46:57;17.30;99.10
664;DHT22;314;48.770;9.246;2022-09-01T06:49:24;17.30;99.10
664;DHT22;314;48.770;9.246;2022-09-01T06:51:58;17.50;99.10
664;DHT22;314;48.770;9.246;2022-09-01T06:54:24;17.50;99.10
664;DHT22;314;48.770;9.246;2022-09-01T06:56:50;17.50;99.10
664;DHT22;314;48.770;9.246;2022-09-01T06:59:18;17.50;99.10
664;DHT22;314;48.770;9.246;2022-09-01T07:01:43;17.50;99.10
664;DHT22;314;48.770;9.246;2022-09-01T07:04:10;17.60;99.10
664;DHT22;314;48.770;9.246;2022-09-01T07:06:39;17.60;99.10
664;DHT22;314;48.770;9.246;2022-09-01T07:09:05;17.70;99.10
664;DHT22;314;48.770;9.246;2022-09-01T07:11:34;17.80;99.10
664;DHT22;314;48.770;9.246;2022-09-01T07:14:03;17.90;99.10
664;DHT22;314;48.770;9.246;2022-09-01T07:16:31;18.00;99.10
664;DHT22;314;48.770;9.246;2022-09-01T07:19:00;18.10;99.10
664;DHT22;314;48.770;9.246;2022-09-01T07:21:28;18.20;99.10
664;DHT22;314;48.770;9.246;2022-09-01T07:23:57;18.40;98.90
664;DHT22;314;48.770;9.246;2022-09-01T07:26:26;18.50;97.70
664;DHT22;314;48.770;9.246;2022-09-01T07:28:53;18.50;98.00
664;DHT22;314;48.770;9.246;2022-09-01T07:31:22;18.60;97.40
664;DHT22;314;48.770;9.246;2022-09-01T07:33:49;18.60;97.90
664;DHT22;314;48.770;9.246;2022-09-01T07:36:17;18.70;97.10
664;DHT22;314;48.770;9.246;2022-09-01T07:38:43;18.80;96.60
664;DHT22;314;48.770;9.246;2022-09-01T07:41:10;18.90;96.80
664;DHT22;314;48.770;9.246;2022-09-01T07:43:40;19.00;96.10
664;DHT22;314;48.770;9.246;2022-09-01T07:46:10;19.10;95.20
664;DHT22;314;48.770;9.246;2022-09-01T07:48:38;19.10;93.70
664;DHT22;314;48.770;9.246;2022-09-01T07:51:04;19.10;95.60
664;DHT22;314;48.770;9.246;2022-09-01T07:53:33;19.20;95.40
664;DHT22;314;48.770;9.246;2022-09-01T07:56:05;19.30;95.00
664;DHT22;314;48.770;9.246;2022-09-01T07:58:35;19.30;93.90
664;DHT22;314;48.770;9.246;2022-09-01T08:01:05;19.30;94.50
664;DHT22;314;48.770;9.246;2022-09-01T08:03:36;19.40;95.90
664;DHT22;314;48.770;9.246;2022-09-01T08:06:07;19.50;96.40
664;DHT22;314;48.770;9.246;2022-09-01T08:08:35;19.50;93.80
664;DHT22;314;48.770;9.246;2022-09-01T08:11:02;19.60;93.50
664;DHT22;314;48.770;9.246;2022-09-01T08:13:28;19.60;93.50
664;DHT22;314;48.770;9.246;2022-09-01T08:15:54;19.70;93.40
664;DHT22;314;48.770;9.246;2022-09-01T08:18:21;19.80;92.90
664;DHT22;314;48.770;9.246;2022-09-01T08:20:47;19.90;93.70
664;DHT22;314;48.770;9.246;2022-09-01T08:23:18;20.00;92.40
664;DHT22;314;48.770;9.246;2022-09-01T08:25:45;20.10;91.60
664;DHT22;314;48.770;9.246;2022-09-01T08:28:13;20.20;92.40
664;DHT22;314;48.770;9.246;2022-09-01T08:30:41;20.30;91.60
664;DHT22;314;48.770;9.246;2022-09-01T08:33:07;20.40;91.50
664;DHT22;314;48.770;9.246;2022-09-01T08:35:47;20.50;93.10
664;DHT22;314;48.770;9.246;2022-09-01T08:38:13;20.50;93.10
664;DHT22;314;48.770;9.246;2022-09-01T08:40:40;20.50;89.80
664;DHT22;314;48.770;9.246;2022-09-01T08:43:37;20.50;89.40
664;DHT22;314;48.770;9.246;2022-09-01T08:46:19;20.50;91.20
664;DHT22;314;48.770;9.246;2022-09-01T08:48:49;20.60;90.10
664;DHT22;314;48.770;9.246;2022-09-01T08:57:29;20.60;91.00
664;DHT22;314;48.770;9.246;2022-09-01T08:59:56;20.80;92.10
664;DHT22;314;48.770;9.246;2022-09-01T09:05:07;21.00;88.90
664;DHT22;314;48.770;9.246;2022-09-01T09:10:58;21.10;87.70
664;DHT22;314;48.770;9.246;2022-09-01T09:13:30;21.10;89.10
664;DHT22;314;48.770;9.246;2022-09-01T09:16:14;21.10;87.40
664;DHT22;314;48.770;9.246;2022-09-01T09:18:50;21.10;87.80
664;DHT22;314;48.770;9.246;2022-09-01T09:21:27;21.20;89.20
664;DHT22;314;48.770;9.246;2022-09-01T09:24:09;21.40;87.10
664;DHT22;314;48.770;9.246;2022-09-01T09:26:35;21.40;87.70
664;DHT22;314;48.770;9.246;2022-09-01T09:29:00;21.50;87.40
664;DHT22;314;48.770;9.246;2022-09-01T09:31:37;21.50;89.20
664;DHT22;314;48.770;9.246;2022-09-01T09:36:52;21.60;86.70
664;DHT22;314;48.770;9.246;2022-09-01T09:39:19;21.60;85.90
664;DHT22;314;48.770;9.246;2022-09-01T09:42:04;21.70;84.10
664;DHT22;314;48.770;9.246;2022-09-01T09:44:43;21.80;83.50
664;DHT22;314;48.770;9.246;2022-09-01T09:50:22;22.10;84.60
664;DHT22;314;48.770;9.246;2022-09-01T09:52:50;22.20;82.70
664;DHT22;314;48.770;9.246;2022-09-01T09:55:28;22.20;79.80
664;DHT22;314;48.770;9.246;2022-09-01T09:57:59;22.20;79.60
664;DHT22;314;48.770;9.246;2022-09-01T10:00:32;22.10;79.90
664;DHT22;314;48.770;9.246;2022-09-01T10:03:12;22.00;79.60
664;DHT22;314;48.770;9.246;2022-09-01T10:05:46;22.00;79.20
664;DHT22;314;48.770;9.246;2022-09-01T10:10:59;22.10;78.30
664;DHT22;314;48.770;9.246;2022-09-01T10:13:26;22.10;79.10
664;DHT22;314;48.770;9.246;2022-09-01T10:16:00;22.30;78.70
664;DHT22;314;48.770;9.246;2022-09-01T10:18:45;22.40;79.40
664;DHT22;314;48.770;9.246;2022-09-01T10:21:16;22.60;78.80
664;DHT22;314;48.770;9.246;2022-09-01T10:23:48;22.80;78.30
664;DHT22;314;48.770;9.246;2022-09-01T10:31:21;23.00;77.00
664;DHT22;314;48.770;9.246;2022-09-01T10:33:48;22.90;77.40
664;DHT22;314;48.770;9.246;2022-09-01T10:36:15;23.10;77.70
664;DHT22;314;48.770;9.246;2022-09-01T10:38:41;23.40;74.60
664;DHT22;314;48.770;9.246;2022-09-01T10:41:07;23.70;73.10
664;DHT22;314;48.770;9.246;2022-09-01T10:43:46;23.90;72.00
664;DHT22;314;48.770;9.246;2022-09-01T10:48:50;24.00;70.10
664;DHT22;314;48.770;9.246;2022-09-01T10:53:45;24.20;69.40
664;DHT22;314;48.770;9.246;2022-09-01T10:56:15;24.30;69.80
664;DHT22;314;48.770;9.246;2022-09-01T10:59:08;24.30;69.20
664;DHT22;314;48.770;9.246;2022-09-01T11:02:14;24.30;69.20
664;DHT22;314;48.770;9.246;2022-09-01T11:05:25;24.20;68.10
664;DHT22;314;48.770;9.246;2022-09-01T11:07:33;23.90;70.20
664;DHT22;314;48.770;9.246;2022-09-01T11:18:02;23.30;73.80
664;DHT22;314;48.770;9.246;2022-09-01T11:20:38;23.30;74.90
664;DHT22;314;48.770;9.246;2022-09-01T11:23:12;23.40;74.80
664;DHT22;314;48.770;9.246;2022-09-01T11:25:46;23.60;73.90
664;DHT22;314;48.770;9.246;2022-09-01T11:30:48;24.30;71.00
664;DHT22;314;48.770;9.246;2022-09-01T11:39:04;25.50;68.30
664;DHT22;314;48.770;9.246;2022-09-01T11:44:01;25.60;67.40
664;DHT22;314;48.770;9.246;2022-09-01T11:46:32;25.60;62.80
664;DHT22;314;48.770;9.246;2022-09-01T11:49:05;25.40;65.20
664;DHT22;314;48.770;9.246;2022-09-01T11:51:45;25.20;66.00
664;DHT22;314;48.770;9.246;2022-09-01T11:54:13;25.00;67.00
664;DHT22;314;48.770;9.246;2022-09-01T11:56:40;24.80;67.70
664;DHT22;314;48.770;9.246;2022-09-01T11:59:05;25.00;69.90
664;DHT22;314;48.770;9.246;2022-09-01T12:01:35;25.30;67.60
664;DHT22;314;48.770;9.246;2022-09-01T12:04:20;25.70;65.80
664;DHT22;314;48.770;9.246;2022-09-01T12:06:59;26.10;62.30
664;DHT22;314;48.770;9.246;2022-09-01T12:09:53;26.30;61.20
664;DHT22;314;48.770;9.246;2022-09-01T12:12:37;26.30;61.40
664;DHT22;314;48.770;9.246;2022-09-01T12:15:16;26.30;61.30
664;DHT22;314;48.770;9.246;2022-09-01T12:17:42;26.10;61.60
664;DHT22;314;48.770;9.246;2022-09-01T12:20:30;25.80;63.30
664;DHT22;314;48.770;9.246;2022-09-01T12:22:58;25.50;65.20
664;DHT22;314;48.770;9.246;2022-09-01T12:25:30;25.20;65.50
664;DHT22;314;48.770;9.246;2022-09-01T12:27:59;25.10;68.50
664;DHT22;314;48.770;9.246;2022-09-01T12:30:25;24.80;67.40
664;DHT22;314;48.770;9.246;2022-09-01T12:32:52;24.70;66.60
664;DHT22;314;48.770;9.246;2022-09-01T12:35:25;24.60;67.60
664;DHT22;314;48.770;9.246;2022-09-01T12:38:14;24.60;69.20
664;DHT22;314;48.770;9.246;2022-09-01T12:40:38;24.50;67.00
664;DHT22;314;48.770;9.246;2022-09-01T12:43:03;24.40;65.50
664;DHT22;314;48.770;9.246;2022-09-01T12:45:43;24.40;66.00
664;DHT22;314;48.770;9.246;2022-09-01T12:48:26;24.50;67.00
664;DHT22;314;48.770;9.246;2022-09-01T12:50:54;24.60;67.00
664;DHT22;314;48.770;9.246;2022-09-01T12:53:22;24.80;66.20
664;DHT22;314;48.770;9.246;2022-09-01T12:55:59;25.30;63.90
664;DHT22;314;48.770;9.246;2022-09-01T12:58:27;25.90;62.30
664;DHT22;314;48.770;9.246;2022-09-01T13:01:05;26.40;59.40
664;DHT22;314;48.770;9.246;2022-09-01T13:03:33;26.80;59.70
664;DHT22;314;48.770;9.246;2022-09-01T13:06:01;27.10;59.10
664;DHT22;314;48.770;9.246;2022-09-01T13:08:32;27.30;59.70
664;DHT22;314;48.770;9.246;2022-09-01T13:11:08;27.60;57.00
664;DHT22;314;48.770;9.246;2022-09-01T13:13:34;27.90;56.80
664;DHT22;314;48.770;9.246;2022-09-01T13:16:01;28.00;57.90
664;DHT22;314;48.770;9.246;2022-09-01T13:18:37;28.00;55.40
664;DHT22;314;48.770;9.246;2022-09-01T13:21:04;27.60;55.00
664;DHT22;314;48.770;9.246;2022-09-01T13:23:30;27.40;57.50
664;DHT22;314;48.770;9.246;2022-09-01T13:25:56;27.30;56.40
664;DHT22;314;48.770;9.246;2022-09-01T13:28:24;27.10;58.10
664;DHT22;314;48.770;9.246;2022-09-01T13:30:56;26.90;58.70
664;DHT22;314;48.770;9.246;2022-09-01T13:33:27;26.70;56.60
664;DHT22;314;48.770;9.246;2022-09-01T13:35:53;26.40;58.30
664;DHT22;314;48.770;9.246;2022-09-01T13:38:20;26.20;59.20
664;DHT22;314;48.770;9.246;2022-09-01T13:40:47;26.10;59.30
664;DHT22;314;48.770;9.246;2022-09-01T13:43:21;26.00;58.70
664;DHT22;314;48.770;9.246;2022-09-01T13:45:48;25.90;59.20
664;DHT22;314;48.770;9.246;2022-09-01T13:48:14;25.50;59.60
664;DHT22;314;48.770;9.246;2022-09-01T13:50:41;25.30;61.20
664;DHT22;314;48.770;9.246;2022-09-01T13:53:08;25.50;63.10
664;DHT22;314;48.770;9.246;2022-09-01T13:55:38;25.80;62.40
664;DHT22;314;48.770;9.246;2022-09-01T13:58:04;26.20;61.70
664;DHT22;314;48.770;9.246;2022-09-01T14:00:33;26.50;60.20
664;DHT22;314;48.770;9.246;2022-09-01T14:03:02;26.80;59.20
664;DHT22;314;48.770;9.246;2022-09-01T14:05:35;26.70;57.40
664;DHT22;314;48.770;9.246;2022-09-01T14:08:03;26.70;57.90
664;DHT22;314;48.770;9.246;2022-09-01T14:10:29;26.70;59.20
664;DHT22;314;48.770;9.246;2022-09-01T14:12:57;26.90;58.50
664;DHT22;314;48.770;9.246;2022-09-01T14:15:23;27.00;60.50
664;DHT22;314;48.770;9.246;2022-09-01T14:17:52;27.20;56.20
664;DHT22;314;48.770;9.246;2022-09-01T14:20:23;27.20;59.60
664;DHT22;314;48.770;9.246;2022-09-01T14:22:49;27.40;58.40
664;DHT22;314;48.770;9.246;2022-09-01T14:25:17;27.70;56.40
664;DHT22;314;48.770;9.246;2022-09-01T14:27:44;27.60;55.00
664;DHT22;314;48.770;9.246;2022-09-01T14:30:19;27.50;56.30
664;DHT22;314;48.770;9.246;2022-09-01T14:32:46;27.60;54.70
664;DHT22;314;48.770;9.246;2022-09-01T14:35:16;27.70;53.70
664;DHT22;314;48.770;9.246;2022-09-01T14:37:43;27.40;54.10
664;DHT22;314;48.770;9.246;2022-09-01T14:40:11;27.10;54.50
664;DHT22;314;48.770;9.246;2022-09-01T14:42:40;26.60;55.30
664;DHT22;314;48.770;9.246;2022-09-01T14:45:09;26.20;57.10
664;DHT22;314;48.770;9.246;2022-09-01T14:47:37;25.90;57.40
664;DHT22;314;48.770;9.246;2022-09-01T14:50:04;25.60;60.10
664;DHT22;314;48.770;9.246;2022-09-01T14:52:32;25.40;57.70
664;DHT22;314;48.770;9.246;2022-09-01T14:54:57;25.30;57.60
664;DHT22;314;48.770;9.246;2022-09-01T14:57:23;25.30;58.00
664;DHT22;314;48.770;9.246;2022-09-01T14:59:49;25.20;60.10
664;DHT22;314;48.770;9.246;2022-09-01T15:02:15;25.10;59.80
664;DHT22;314;48.770;9.246;2022-09-01T15:04:41;25.10;61.40
664;DHT22;314;48.770;9.246;2022-09-01T15:07:07;25.40;60.80
664;DHT22;314;48.770;9.246;2022-09-01T15:09:33;25.70;60.60
664;DHT22;314;48.770;9.246;2022-09-01T15:12:00;26.00;60.80
664;DHT22;314;48.770;9.246;2022-09-01T15:14:26;26.40;57.90
664;DHT22;314;48.770;9.246;2022-09-01T15:16:52;26.60;56.70
664;DHT22;314;48.770;9.246;2022-09-01T15:19:18;26.80;56.60
664;DHT22;314;48.770;9.246;2022-09-01T15:21:45;27.00;55.40
664;DHT22;314;48.770;9.246;2022-09-01T15:24:11;27.10;55.80
664;DHT22;314;48.770;9.246;2022-09-01T15:26:38;27.10;54.50
664;DHT22;314;48.770;9.246;2022-09-01T15:29:08;27.10;56.20
664;DHT22;314;48.770;9.246;2022-09-01T15:31:36;27.10;55.50
664;DHT22;314;48.770;9.246;2022-09-01T15:34:03;27.00;54.90
664;DHT22;314;48.770;9.246;2022-09-01T15:36:30;26.80;54.70
664;DHT22;314;48.770;9.246;2022-09-01T15:38:58;26.70;55.50
664;DHT22;314;48.770;9.246;2022-09-01T15:41:27;26.60;55.10
664;DHT22;314;48.770;9.246;2022-09-01T15:43:54;26.50;54.30
664;DHT22;314;48.770;9.246;2022-09-01T15:46:20;26.40;55.30
664;DHT22;314;48.770;9.246;2022-09-01T15:48:46;26.50;55.90
664;DHT22;314;48.770;9.246;2022-09-01T15:53:53;26.60;54.70
664;DHT22;314;48.770;9.246;2022-09-01T15:56:19;26.60;53.30
664;DHT22;314;48.770;9.246;2022-09-01T15:58:46;26.60;53.60
664;DHT22;314;48.770;9.246;2022-09-01T16:01:13;26.70;53.90
664;DHT22;314;48.770;9.246;2022-09-01T16:03:39;26.70;53.80
664;DHT22;314;48.770;9.246;2022-09-01T16:06:05;26.80;55.00
664;DHT22;314;48.770;9.246;2022-09-01T16:08:32;26.80;53.60
664;DHT22;314;48.770;9.246;2022-09-01T16:10:58;26.80;53.20
664;DHT22;314;48.770;9.246;2022-09-01T16:13:24;26.60;53.30
664;DHT22;314;48.770;9.246;2022-09-01T16:16:11;26.60;54.30
664;DHT22;314;48.770;9.246;2022-09-01T16:22:37;26.60;55.00
664;DHT22;314;48.770;9.246;2022-09-01T16:24:59;26.50;54.70
664;DHT22;314;48.770;9.246;2022-09-01T16:27:34;26.30;55.40
664;DHT22;314;48.770;9.246;2022-09-01T16:30:09;26.20;55.70
664;DHT22;314;48.770;9.246;2022-09-01T16:32:37;26.20;54.70
664;DHT22;314;48.770;9.246;2022-09-01T16:35:03;26.30;57.40
664;DHT22;314;48.770;9.246;2022-09-01T16:37:57;26.30;56.80
664;DHT22;314;48.770;9.246;2022-09-01T16:43:19;25.50;58.30
664;DHT22;314;48.770;9.246;2022-09-01T16:46:00;25.30;58.10
664;DHT22;314;48.770;9.246;2022-09-01T16:48:47;25.10;57.50
664;DHT22;314;48.770;9.246;2022-09-01T16:51:28;25.10;57.50
664;DHT22;314;48.770;9.246;2022-09-01T16:54:20;24.90;58.00
664;DHT22;314;48.770;9.246;2022-09-01T16:56:59;24.70;60.20
664;DHT22;314;48.770;9.246;2022-09-01T16:59:36;24.60;59.60
664;DHT22;314;48.770;9.246;2022-09-01T17:13:27;24.00;61.40
664;DHT22;314;48.770;9.246;2022-09-01T17:18:44;23.60;63.10
664;DHT22;314;48.770;9.246;2022-09-01T17:21:33;23.50;64.40
664;DHT22;314;48.770;9.246;2022-09-01T17:24:32;23.40;65.20
664;DHT22;314;48.770;9.246;2022-09-01T17:27:01;23.30;65.10
664;DHT22;314;48.770;9.246;2022-09-01T17:38:01;23.00;64.90
664;DHT22;314;48.770;9.246;2022-09-01T17:43:15;22.90;64.80
664;DHT22;314;48.770;9.246;2022-09-01T17:45:50;22.90;64.60
664;DHT22;314;48.770;9.246;2022-09-01T17:51:06;22.80;64.50
664;DHT22;314;48.770;9.246;2022-09-01T17:56:22;22.60;64.90
664;DHT22;314;48.770;9.246;2022-09-01T18:04:43;22.50;65.90
664;DHT22;314;48.770;9.246;2022-09-01T18:10:48;22.40;66.60
664;DHT22;314;48.770;9.246;2022-09-01T18:13:35;22.30;68.00
664;DHT22;314;48.770;9.246;2022-09-01T18:16:07;22.20;68.80
664;DHT22;314;48.770;9.246;2022-09-01T18:21:18;22.00;69.10
664;DHT22;314;48.770;9.246;2022-09-01T18:23:47;21.90;70.80
664;DHT22;314;48.770;9.246;2022-09-01T18:28:55;21.90;71.20
664;DHT22;314;48.770;9.246;2022-09-01T18:36:36;21.60;73.10
664;DHT22;314;48.770;9.246;2022-09-01T18:39:09;21.50;73.40
664;DHT22;314;48.770;9.246;2022-09-01T18:47:16;21.20;74.50
664;DHT22;314;48.770;9.246;2022-09-01T18:55:20;21.00;75.60
664;DHT22;314;48.770;9.246;2022-09-01T18:57:52;20.90;76.70
664;DHT22;314;48.770;9.246;2022-09-01T19:00:21;20.80;76.90
664;DHT22;314;48.770;9.246;2022-09-01T19:06:04;20.70;77.40
664;DHT22;314;48.770;9.246;2022-09-01T19:08:44;20.60;78.00
664;DHT22;314;48.770;9.246;2022-09-01T19:14:22;20.40;78.40
664;DHT22;314;48.770;9.246;2022-09-01T19:17:02;20.30;79.50
664;DHT22;314;48.770;9.246;2022-09-01T19:23:05;20.10;79.80
664;DHT22;314;48.770;9.246;2022-09-01T19:25:11;20.00;79.90
664;DHT22;314;48.770;9.246;2022-09-01T19:30:25;19.90;80.30
664;DHT22;314;48.770;9.246;2022-09-01T19:32:52;19.80;80.60